Time;durP1;ratioP1;P1;durP2;ratioP2;P2;SDS_P1;SDS_P2;PMS_P1;PMS_P2;Temp;Humidity;BMP_temperature;BMP_pressure;BME280_temperature;BME280_humidity;BME280_pressure;Samples;Min_cycle;Max_cycle;Signal;HPM_P1;HPM_P2
2021/06/27 00:01:38;;;;;;;70.30;37.47;;;20.90;99.90;;;;;;5049625;28;20264;-71
2021/06/27 00:04:05;;;;;;;65.40;37.03;;;20.90;99.90;;;;;;5049373;28;20195;-71
2021/06/27 00:06:33;;;;;;;69.72;37.60;;;20.80;99.90;;;;;;5049300;28;20288;-69
2021/06/27 00:09:00;;;;;;;66.53;36.55;;;20.80;99.90;;;;;;5049760;28;20257;-70
2021/06/27 00:11:27;;;;;;;73.85;38.65;;;20.80;99.90;;;;;;5046963;28;20199;-70
2021/06/27 00:13:54;;;;;;;63.13;36.53;;;20.80;99.90;;;;;;5050169;28;20606;-72
2021/06/27 00:16:21;;;;;;;70.95;37.95;;;20.80;99.90;;;;;;5049351;28;20211;-72
2021/06/27 00:18:51;;;;;;;70.32;37.33;;;20.80;99.90;;;;;;5046092;28;20621;-72
2021/06/27 00:21:18;;;;;;;66.57;38.05;;;20.80;99.90;;;;;;5048479;28;20264;-70
2021/06/27 00:23:49;;;;;;;69.80;36.90;;;20.70;99.90;;;;;;5052289;28;20273;-70
2021/06/27 00:26:20;;;;;;;68.90;38.90;;;20.70;99.90;;;;;;5051388;28;20207;-69
2021/06/27 00:28:47;;;;;;;67.05;37.65;;;20.70;99.90;;;;;;5047191;28;20223;-71
2021/06/27 00:31:14;;;;;;;66.70;36.78;;;20.70;99.90;;;;;;5049509;28;20620;-71
2021/06/27 00:33:41;;;;;;;62.47;37.60;;;20.70;99.90;;;;;;5048686;28;20568;-70
2021/06/27 00:36:09;;;;;;;70.65;37.33;;;20.60;99.90;;;;;;5047524;28;20207;-71
2021/06/27 00:38:36;;;;;;;70.88;37.10;;;20.60;99.90;;;;;;5050694;28;20198;-70
2021/06/27 00:41:05;;;;;;;65.20;37.15;;;20.70;99.90;;;;;;5046223;28;20239;-72
2021/06/27 00:43:33;;;;;;;69.75;37.65;;;20.60;99.90;;;;;;5051575;28;20280;-71
2021/06/27 00:46:01;;;;;;;69.28;37.80;;;20.60;99.90;;;;;;5047620;28;20207;-70
2021/06/27 00:48:27;;;;;;;63.47;36.47;;;20.60;99.90;;;;;;5051204;28;20206;-71
2021/06/27 00:50:56;;;;;;;66.32;36.05;;;20.60;99.90;;;;;;5049274;28;20211;-70
2021/06/27 00:53:23;;;;;;;68.95;37.47;;;20.50;99.90;;;;;;5046916;28;20257;-72
2021/06/27 00:55:55;;;;;;;68.47;38.15;;;20.50;99.90;;;;;;5045855;28;20613;-73
2021/06/27 00:58:26;;;;;;;72.10;38.13;;;20.50;99.90;;;;;;5048919;28;20843;-72
2021/06/27 01:00:53;;;;;;;66.57;37.20;;;20.40;99.90;;;;;;5047202;28;20700;-71
2021/06/27 01:03:20;;;;;;;70.72;37.45;;;20.50;99.90;;;;;;5052618;28;20663;-73
2021/06/27 01:05:47;;;;;;;62.55;36.45;;;20.40;99.90;;;;;;5050020;28;20268;-70
2021/06/27 01:08:15;;;;;;;74.13;38.85;;;20.40;99.90;;;;;;5050759;28;20264;-71
2021/06/27 01:10:42;;;;;;;67.35;38.15;;;20.40;99.90;;;;;;5052902;28;20569;-70
2021/06/27 01:13:09;;;;;;;67.88;37.63;;;20.40;99.90;;;;;;5057296;28;20583;-70
2021/06/27 01:15:37;;;;;;;68.80;38.22;;;20.40;99.90;;;;;;5057318;28;20206;-70
2021/06/27 01:18:05;;;;;;;66.75;36.97;;;20.40;99.90;;;;;;5054180;28;20198;-70
2021/06/27 01:20:33;;;;;;;69.35;38.15;;;20.40;99.90;;;;;;5055847;28;20194;-71
2021/06/27 01:23:03;;;;;;;71.00;38.80;;;20.40;99.90;;;;;;5055093;28;20257;-71
2021/06/27 01:25:32;;;;;;;75.68;39.45;;;20.30;99.90;;;;;;5054036;28;20206;-71
2021/06/27 01:28:00;;;;;;;69.03;38.03;;;20.30;99.90;;;;;;5060123;28;20837;-71
2021/06/27 01:30:28;;;;;;;69.10;37.90;;;20.30;99.90;;;;;;5073044;28;20280;-72
2021/06/27 01:32:56;;;;;;;68.07;38.28;;;20.30;99.90;;;;;;5055039;28;20203;-71
2021/06/27 01:35:27;;;;;;;70.00;38.30;;;20.30;99.90;;;;;;5051090;28;20203;-73
2021/06/27 01:37:56;;;;;;;71.18;38.20;;;20.30;99.90;;;;;;5053655;28;20699;-72
2021/06/27 01:40:26;;;;;;;75.38;38.97;;;20.30;99.90;;;;;;5049124;28;20253;-71
2021/06/27 01:43:04;;;;;;;71.10;38.35;;;20.30;99.90;;;;;;5056609;28;20670;-75
2021/06/27 01:45:30;;;;;;;75.18;39.08;;;20.20;99.90;;;;;;5053104;28;20207;-71
2021/06/27 01:47:59;;;;;;;73.97;40.40;;;20.20;99.90;;;;;;5055711;28;20214;-71
2021/06/27 01:50:27;;;;;;;66.63;38.58;;;20.20;99.90;;;;;;5055640;28;20254;-71
2021/06/27 01:52:55;;;;;;;71.55;38.85;;;20.20;99.90;;;;;;5054122;28;20203;-74
2021/06/27 01:55:25;;;;;;;72.63;40.15;;;20.20;99.90;;;;;;5056566;28;20265;-74
2021/06/27 01:57:52;;;;;;;67.57;38.78;;;20.20;99.90;;;;;;5051671;28;20203;-71
2021/06/27 02:00:20;;;;;;;70.15;39.90;;;20.20;99.90;;;;;;5055011;28;20198;-73
2021/06/27 02:02:48;;;;;;;73.63;38.67;;;20.20;99.90;;;;;;5052976;28;20209;-70
2021/06/27 02:05:15;;;;;;;77.05;39.90;;;20.20;99.90;;;;;;5053227;28;20693;-71
2021/06/27 02:07:42;;;;;;;74.53;39.58;;;20.10;99.90;;;;;;5053816;28;20206;-71
2021/06/27 02:10:11;;;;;;;70.57;40.22;;;20.20;99.90;;;;;;5055446;28;20420;-69
2021/06/27 02:12:40;;;;;;;72.13;40.30;;;20.10;99.90;;;;;;5052543;28;20264;-73
2021/06/27 02:15:10;;;;;;;70.70;39.60;;;20.10;99.90;;;;;;5054249;28;20207;-73
2021/06/27 02:17:37;;;;;;;71.78;40.03;;;20.10;99.90;;;;;;5055106;28;20206;-72
2021/06/27 02:20:06;;;;;;;75.15;40.08;;;20.10;99.90;;;;;;5054999;28;20211;-74
2021/06/27 02:22:33;;;;;;;72.55;39.70;;;20.10;99.90;;;;;;5049537;28;20211;-72
2021/06/27 02:25:00;;;;;;;68.35;39.70;;;20.10;99.90;;;;;;5050521;28;20222;-70
2021/06/27 02:27:27;;;;;;;75.65;41.65;;;20.00;99.90;;;;;;5049179;28;20879;-71
2021/06/27 02:29:55;;;;;;;74.82;40.45;;;20.00;99.90;;;;;;5050288;28;20626;-74
2021/06/27 02:32:22;;;;;;;78.18;41.72;;;20.00;99.90;;;;;;5050509;28;20667;-71
2021/06/27 02:34:49;;;;;;;72.85;40.65;;;20.00;99.90;;;;;;5052170;28;20192;-74
2021/06/27 02:37:16;;;;;;;74.25;40.88;;;20.00;99.90;;;;;;5050682;28;20207;-70
2021/06/27 02:39:43;;;;;;;74.63;40.88;;;20.00;99.90;;;;;;5051396;28;20273;-70
2021/06/27 02:42:10;;;;;;;76.97;39.67;;;20.00;99.90;;;;;;5047579;28;20235;-72
2021/06/27 02:44:37;;;;;;;74.50;40.13;;;20.00;99.90;;;;;;5053405;28;20253;-71
2021/06/27 02:47:06;;;;;;;77.35;40.88;;;20.00;99.90;;;;;;5049802;28;20206;-72
2021/06/27 02:49:32;;;;;;;74.03;41.88;;;19.90;99.90;;;;;;5048822;28;20207;-73
2021/06/27 02:51:59;;;;;;;75.72;41.13;;;20.00;99.90;;;;;;5047819;28;20583;-71
2021/06/27 02:54:26;;;;;;;80.50;41.88;;;19.90;99.90;;;;;;5052590;28;20210;-72
2021/06/27 02:56:53;;;;;;;75.55;41.28;;;20.00;99.90;;;;;;5048828;28;20257;-72
2021/06/27 02:59:20;;;;;;;72.00;41.15;;;19.90;99.90;;;;;;5052720;28;20761;-72
2021/06/27 03:01:46;;;;;;;77.22;40.30;;;19.90;99.90;;;;;;5048722;28;20203;-70
2021/06/27 03:04:14;;;;;;;73.07;41.92;;;19.90;99.90;;;;;;5052071;28;20671;-71
2021/06/27 03:06:41;;;;;;;74.85;41.70;;;19.90;99.90;;;;;;5051826;28;20206;-73
2021/06/27 03:09:08;;;;;;;71.10;39.72;;;19.80;99.90;;;;;;5050034;28;20207;-71
2021/06/27 03:11:35;;;;;;;74.28;40.08;;;19.80;99.90;;;;;;5050064;28;22638;-71
2021/06/27 03:14:02;;;;;;;74.88;41.40;;;19.90;99.90;;;;;;5050016;28;20265;-72
2021/06/27 03:16:28;;;;;;;76.00;42.28;;;19.80;99.90;;;;;;5050805;28;20281;-72
2021/06/27 03:18:55;;;;;;;71.13;40.28;;;19.80;99.90;;;;;;5052284;28;20256;-71
2021/06/27 03:21:23;;;;;;;71.25;40.15;;;19.80;99.90;;;;;;5050216;28;20226;-71
2021/06/27 03:23:50;;;;;;;72.25;39.95;;;19.80;99.90;;;;;;5048885;28;20229;-73
2021/06/27 03:26:17;;;;;;;72.13;41.30;;;19.80;99.90;;;;;;5049596;28;20207;-72
2021/06/27 03:28:51;;;;;;;80.30;41.85;;;19.80;99.90;;;;;;5052828;28;20249;-71
2021/06/27 03:31:17;;;;;;;73.63;40.88;;;19.80;99.90;;;;;;5049730;28;20223;-71
2021/06/27 03:33:44;;;;;;;79.70;40.95;;;19.80;99.90;;;;;;5050969;28;20203;-70
2021/06/27 03:36:11;;;;;;;73.72;41.08;;;19.80;99.90;;;;;;5049358;28;20261;-72
2021/06/27 03:38:45;;;;;;;71.93;41.03;;;19.70;99.90;;;;;;5050199;28;20202;-73
2021/06/27 03:41:13;;;;;;;68.40;39.33;;;19.80;99.90;;;;;;5049343;28;20239;-71
2021/06/27 03:43:40;;;;;;;72.18;40.25;;;19.70;99.90;;;;;;5052938;28;20203;-72
2021/06/27 03:46:06;;;;;;;67.45;39.95;;;19.70;99.90;;;;;;5049217;28;20203;-71
2021/06/27 03:48:34;;;;;;;69.38;39.42;;;19.70;99.90;;;;;;5048658;28;20210;-72
2021/06/27 03:51:01;;;;;;;69.93;39.67;;;19.70;99.90;;;;;;5047166;28;20234;-70
2021/06/27 03:53:27;;;;;;;67.50;39.25;;;19.70;99.90;;;;;;5049741;28;20595;-70
2021/06/27 03:55:57;;;;;;;65.28;39.58;;;19.70;99.90;;;;;;5048244;28;20264;-71
2021/06/27 03:58:24;;;;;;;66.25;39.38;;;19.70;99.90;;;;;;5052027;28;20221;-73
2021/06/27 04:00:51;;;;;;;67.38;39.50;;;19.70;99.90;;;;;;5048374;28;20199;-71
2021/06/27 04:03:18;;;;;;;64.75;39.20;;;19.70;99.90;;;;;;5048278;28;20207;-72
2021/06/27 04:05:45;;;;;;;65.70;38.28;;;19.70;99.90;;;;;;5050259;28;20630;-72
2021/06/27 04:08:11;;;;;;;67.07;38.65;;;19.70;99.90;;;;;;5049267;28;20260;-72
2021/06/27 04:10:38;;;;;;;62.65;38.20;;;19.70;99.90;;;;;;5051019;28;20239;-71
2021/06/27 04:13:06;;;;;;;66.10;37.70;;;19.70;99.90;;;;;;5051287;28;20569;-72
2021/06/27 04:15:33;;;;;;;60.47;36.85;;;19.70;99.90;;;;;;5048117;28;20249;-71
2021/06/27 04:18:00;;;;;;;69.25;38.47;;;19.70;99.90;;;;;;5049626;28;20285;-71
2021/06/27 04:20:27;;;;;;;65.43;38.03;;;19.70;99.90;;;;;;5046157;28;20210;-72
2021/06/27 04:22:54;;;;;;;66.28;37.78;;;19.70;99.90;;;;;;5048007;28;20257;-73
2021/06/27 04:25:21;;;;;;;61.28;36.83;;;19.80;99.90;;;;;;5045081;28;20203;-71
2021/06/27 04:27:48;;;;;;;60.78;36.65;;;19.80;99.90;;;;;;5042957;28;20195;-70
2021/06/27 04:30:17;;;;;;;61.55;36.65;;;19.80;99.90;;;;;;5048398;28;20237;-71
2021/06/27 04:32:44;;;;;;;65.50;37.63;;;19.80;99.90;;;;;;5048790;28;20218;-71
2021/06/27 04:35:11;;;;;;;66.28;36.78;;;19.80;99.90;;;;;;5049803;28;20203;-71
2021/06/27 04:37:38;;;;;;;62.53;36.88;;;19.80;99.90;;;;;;5048703;28;20222;-71
2021/06/27 04:40:06;;;;;;;62.88;36.78;;;19.80;99.90;;;;;;5046693;28;21183;-71
2021/06/27 04:42:33;;;;;;;57.85;37.03;;;19.90;99.90;;;;;;5049205;28;20210;-71
2021/06/27 04:45:00;;;;;;;60.15;37.33;;;19.90;99.90;;;;;;5048823;28;20221;-71
2021/06/27 04:47:28;;;;;;;60.03;36.90;;;19.90;99.90;;;;;;5047970;28;20213;-72
2021/06/27 04:49:55;;;;;;;56.67;34.47;;;19.90;99.90;;;;;;5042975;28;20656;-71
2021/06/27 04:52:22;;;;;;;61.63;36.72;;;19.90;99.90;;;;;;5048194;28;20226;-70
2021/06/27 04:54:50;;;;;;;56.53;35.22;;;20.00;99.90;;;;;;5048185;28;20281;-72
2021/06/27 04:57:16;;;;;;;61.05;36.42;;;19.90;99.90;;;;;;5049242;28;20663;-72
2021/06/27 04:59:43;;;;;;;56.53;34.95;;;19.90;99.90;;;;;;5049965;28;20287;-72
2021/06/27 05:02:10;;;;;;;60.47;37.28;;;19.90;99.90;;;;;;5042202;28;20214;-72
2021/06/27 05:04:38;;;;;;;58.97;35.45;;;20.00;99.90;;;;;;5046702;28;20666;-72
2021/06/27 05:07:05;;;;;;;58.10;36.28;;;20.00;99.90;;;;;;5049877;28;20195;-71
2021/06/27 05:09:32;;;;;;;57.25;34.20;;;20.00;99.90;;;;;;5049498;28;20199;-70
2021/06/27 05:11:59;;;;;;;58.20;37.05;;;20.00;99.90;;;;;;5047425;28;20276;-71
2021/06/27 05:14:26;;;;;;;57.95;35.38;;;20.00;99.90;;;;;;5050591;28;20226;-73
2021/06/27 05:16:53;;;;;;;53.70;34.72;;;20.00;99.90;;;;;;5048591;28;20195;-70
2021/06/27 05:19:20;;;;;;;55.20;35.38;;;20.10;99.90;;;;;;5048157;28;20207;-71
2021/06/27 05:21:49;;;;;;;60.38;35.63;;;20.10;99.90;;;;;;5047413;28;20210;-72
2021/06/27 05:24:15;;;;;;;60.33;37.80;;;20.10;99.90;;;;;;5042340;28;20207;-72
2021/06/27 05:26:42;;;;;;;55.50;36.08;;;20.10;99.90;;;;;;5046861;28;20666;-69
2021/06/27 05:29:10;;;;;;;55.90;35.13;;;20.10;99.90;;;;;;5045490;28;20727;-70
2021/06/27 05:31:37;;;;;;;56.83;35.80;;;20.20;99.90;;;;;;5047319;28;20646;-71
2021/06/27 05:34:04;;;;;;;57.38;35.58;;;20.20;99.90;;;;;;5043844;28;20223;-72
2021/06/27 05:36:36;;;;;;;54.67;35.05;;;20.20;99.90;;;;;;5048153;28;20608;-70
2021/06/27 05:39:05;;;;;;;56.78;36.15;;;20.20;99.90;;;;;;5046917;28;20203;-69
2021/06/27 05:41:32;;;;;;;59.92;36.58;;;20.20;99.90;;;;;;5046021;28;20226;-71
2021/06/27 05:43:59;;;;;;;53.63;35.35;;;20.30;99.90;;;;;;5044444;28;20207;-71
2021/06/27 05:46:26;;;;;;;59.60;36.25;;;20.30;99.90;;;;;;5044671;28;20207;-72
2021/06/27 05:48:53;;;;;;;59.17;36.13;;;20.30;99.90;;;;;;5045036;28;20203;-71
2021/06/27 05:51:20;;;;;;;58.08;36.05;;;20.30;99.90;;;;;;5048436;28;20211;-69
2021/06/27 05:53:47;;;;;;;58.80;35.75;;;20.40;99.90;;;;;;5039453;28;20210;-69
2021/06/27 05:56:16;;;;;;;52.70;35.83;;;20.40;99.90;;;;;;5043953;28;20211;-70
2021/06/27 05:58:44;;;;;;;57.28;36.35;;;20.40;99.90;;;;;;5046392;28;20237;-71
2021/06/27 06:01:14;;;;;;;51.95;35.22;;;20.40;99.90;;;;;;5049511;28;20253;-72
2021/06/27 06:03:41;;;;;;;56.05;35.22;;;20.40;99.90;;;;;;5046324;28;20257;-72
2021/06/27 06:06:10;;;;;;;54.15;35.35;;;20.50;99.90;;;;;;5051188;28;20234;-71
2021/06/27 06:08:40;;;;;;;57.47;35.55;;;20.50;99.90;;;;;;5053179;28;20203;-73
2021/06/27 06:11:07;;;;;;;56.47;35.97;;;20.50;99.90;;;;;;5049141;28;20304;-70
2021/06/27 06:13:35;;;;;;;56.42;35.75;;;20.50;99.90;;;;;;5045497;28;20674;-71
2021/06/27 06:16:02;;;;;;;55.10;34.78;;;20.60;99.90;;;;;;5053474;28;20195;-71
2021/06/27 06:18:29;;;;;;;55.72;34.67;;;20.60;99.90;;;;;;5047684;28;20203;-71
2021/06/27 06:20:56;;;;;;;53.05;35.60;;;20.60;99.90;;;;;;5048655;28;20204;-70
2021/06/27 06:23:22;;;;;;;53.88;34.72;;;20.60;99.90;;;;;;5049324;28;20210;-72
2021/06/27 06:25:49;;;;;;;52.05;34.80;;;20.70;99.90;;;;;;5049136;28;20245;-71
2021/06/27 06:28:16;;;;;;;53.53;34.35;;;20.70;99.90;;;;;;5046503;28;20199;-70
2021/06/27 06:30:44;;;;;;;55.33;35.33;;;20.70;99.90;;;;;;5049277;28;20199;-71
2021/06/27 06:33:11;;;;;;;50.92;33.75;;;20.70;99.90;;;;;;5047914;28;20238;-71
2021/06/27 06:35:38;;;;;;;55.28;34.85;;;20.80;99.90;;;;;;5047599;28;20264;-72
2021/06/27 06:38:05;;;;;;;56.10;35.30;;;20.80;99.90;;;;;;5047891;28;20256;-70
2021/06/27 06:40:32;;;;;;;53.45;35.55;;;20.80;99.90;;;;;;5047951;28;20237;-71
2021/06/27 06:42:59;;;;;;;56.00;34.50;;;20.90;99.90;;;;;;5047647;28;20264;-69
2021/06/27 06:45:26;;;;;;;55.72;35.13;;;20.90;99.90;;;;;;5048443;28;20217;-70
2021/06/27 06:47:55;;;;;;;55.42;34.70;;;20.90;99.90;;;;;;5046568;28;20260;-72
2021/06/27 06:50:23;;;;;;;52.92;35.13;;;20.90;99.90;;;;;;5051140;28;20560;-70
2021/06/27 06:52:50;;;;;;;51.70;34.47;;;21.00;99.90;;;;;;5049710;28;20253;-72
2021/06/27 06:55:17;;;;;;;54.28;32.92;;;21.00;99.90;;;;;;5052855;28;20616;-72
2021/06/27 06:57:44;;;;;;;52.85;34.80;;;21.00;99.90;;;;;;5048773;28;20280;-70
2021/06/27 07:00:12;;;;;;;52.17;33.53;;;21.00;99.90;;;;;;5051406;28;20231;-72
2021/06/27 07:02:39;;;;;;;49.88;33.50;;;21.10;99.90;;;;;;5047639;28;20200;-71
2021/06/27 07:05:09;;;;;;;48.00;32.33;;;21.10;99.90;;;;;;5051862;28;20207;-72
2021/06/27 07:07:36;;;;;;;45.92;30.92;;;21.10;99.90;;;;;;5051114;28;20549;-70
2021/06/27 07:10:04;;;;;;;49.25;31.75;;;21.20;99.90;;;;;;5051702;28;20659;-70
2021/06/27 07:12:31;;;;;;;45.35;31.23;;;21.20;99.90;;;;;;5047187;28;20223;-70
2021/06/27 07:14:58;;;;;;;49.80;32.15;;;21.20;99.90;;;;;;5052134;28;20206;-71
2021/06/27 07:17:25;;;;;;;52.67;31.58;;;21.20;99.90;;;;;;5050711;28;20682;-71
2021/06/27 07:19:52;;;;;;;45.78;31.63;;;21.30;99.90;;;;;;5050358;28;20269;-70
2021/06/27 07:22:21;;;;;;;46.72;30.85;;;21.30;99.90;;;;;;5049260;28;20195;-71
2021/06/27 07:24:47;;;;;;;48.00;31.60;;;21.40;99.90;;;;;;5050987;28;20211;-71
2021/06/27 07:27:14;;;;;;;45.00;30.70;;;21.40;99.90;;;;;;5052321;28;20267;-70
2021/06/27 07:29:41;;;;;;;46.78;31.02;;;21.50;99.90;;;;;;5051116;28;20260;-70
2021/06/27 07:32:08;;;;;;;47.15;30.95;;;21.50;99.90;;;;;;5048064;28;20586;-71
2021/06/27 07:34:35;;;;;;;47.80;29.85;;;21.50;99.90;;;;;;5051066;28;20655;-71
2021/06/27 07:37:03;;;;;;;51.25;30.42;;;21.60;99.90;;;;;;5050869;28;20217;-70
2021/06/27 07:39:31;;;;;;;49.10;30.20;;;21.60;99.90;;;;;;5049142;28;20205;-71
2021/06/27 07:41:58;;;;;;;46.20;29.40;;;21.60;99.90;;;;;;5050916;28;20225;-71
2021/06/27 07:44:25;;;;;;;42.47;29.42;;;21.70;99.90;;;;;;5050939;28;20207;-70
2021/06/27 07:46:52;;;;;;;42.10;27.92;;;21.70;99.90;;;;;;5051403;28;20187;-73
2021/06/27 07:49:19;;;;;;;44.60;29.05;;;21.70;99.90;;;;;;5050264;28;20199;-70
2021/06/27 07:51:46;;;;;;;40.15;28.05;;;21.70;99.90;;;;;;5050126;28;20270;-71
2021/06/27 07:54:13;;;;;;;43.70;28.63;;;21.80;99.90;;;;;;5050938;28;20207;-70
2021/06/27 07:56:41;;;;;;;45.78;28.42;;;21.80;99.90;;;;;;5048519;28;20210;-72
2021/06/27 07:59:09;;;;;;;43.97;27.85;;;21.80;99.90;;;;;;5047861;28;20280;-71
2021/06/27 08:01:36;;;;;;;43.13;27.63;;;21.80;99.90;;;;;;5065550;28;20207;-71
2021/06/27 08:04:02;;;;;;;44.15;26.70;;;21.90;99.90;;;;;;5048994;28;20199;-72
2021/06/27 08:06:29;;;;;;;39.97;27.20;;;21.90;99.90;;;;;;5051180;28;20256;-68
2021/06/27 08:08:56;;;;;;;39.33;26.88;;;21.90;99.90;;;;;;5047458;28;20207;-69
2021/06/27 08:11:23;;;;;;;39.90;26.70;;;22.00;99.90;;;;;;5047882;28;20218;-71
2021/06/27 08:13:51;;;;;;;39.17;27.10;;;22.00;99.90;;;;;;5043585;28;20211;-70
2021/06/27 08:16:18;;;;;;;37.83;25.80;;;22.10;99.90;;;;;;5047382;28;20736;-72
2021/06/27 08:18:45;;;;;;;40.75;25.33;;;22.10;99.90;;;;;;5048921;28;20200;-70
2021/06/27 08:21:12;;;;;;;37.00;25.50;;;22.10;99.90;;;;;;5045841;28;20230;-71
2021/06/27 08:23:39;;;;;;;37.33;25.15;;;22.20;99.90;;;;;;5050805;28;20205;-71
2021/06/27 08:26:06;;;;;;;36.35;25.23;;;22.20;99.90;;;;;;5051012;28;20222;-71
2021/06/27 08:28:33;;;;;;;38.53;25.90;;;22.20;99.90;;;;;;5050587;28;20605;-71
2021/06/27 08:31:01;;;;;;;39.00;24.35;;;22.30;99.90;;;;;;5049859;28;20515;-70
2021/06/27 08:33:28;;;;;;;39.63;25.55;;;22.30;99.90;;;;;;5050375;28;20223;-70
2021/06/27 08:35:55;;;;;;;35.63;24.08;;;22.30;99.90;;;;;;5047324;28;20203;-70
2021/06/27 08:38:22;;;;;;;36.33;23.35;;;22.40;99.90;;;;;;5049712;28;20199;-71
2021/06/27 08:40:48;;;;;;;37.45;24.52;;;22.40;99.90;;;;;;5044804;28;20296;-70
2021/06/27 08:43:15;;;;;;;33.45;23.30;;;22.40;99.90;;;;;;5051222;28;20203;-71
2021/06/27 08:45:50;;;;;;;37.67;24.20;;;22.50;99.90;;;;;;5050528;28;20215;-71
2021/06/27 08:48:21;;;;;;;33.20;23.33;;;22.40;99.90;;;;;;5046895;28;20655;-71
2021/06/27 08:50:50;;;;;;;36.00;23.00;;;22.50;99.90;;;;;;5045576;28;20260;-74
2021/06/27 08:53:17;;;;;;;35.40;23.35;;;22.50;99.90;;;;;;5046183;28;20310;-71
2021/06/27 08:55:44;;;;;;;32.17;23.08;;;22.60;99.90;;;;;;5045640;28;20217;-71
2021/06/27 08:58:12;;;;;;;31.73;22.25;;;22.60;99.90;;;;;;5044739;28;20675;-70
2021/06/27 09:00:39;;;;;;;30.15;21.73;;;22.70;99.90;;;;;;5047012;28;20256;-69
2021/06/27 09:03:06;;;;;;;30.75;21.67;;;22.70;99.70;;;;;;5047648;28;20207;-69
2021/06/27 09:05:35;;;;;;;36.33;22.75;;;22.70;99.50;;;;;;5044815;28;20211;-69
2021/06/27 09:08:14;;;;;;;33.97;21.67;;;22.80;99.40;;;;;;5046849;28;20195;-68
2021/06/27 09:10:41;;;;;;;32.10;21.98;;;22.80;99.20;;;;;;5048275;28;20203;-70
2021/06/27 09:13:08;;;;;;;35.00;22.10;;;22.80;99.20;;;;;;5045035;28;20703;-71
2021/06/27 09:15:38;;;;;;;31.15;21.38;;;22.90;99.10;;;;;;5048269;28;20756;-73
2021/06/27 09:18:07;;;;;;;29.08;19.40;;;22.90;99.00;;;;;;5049503;28;20269;-71
2021/06/27 09:20:36;;;;;;;34.42;20.70;;;22.90;98.90;;;;;;5047148;28;20675;-72
2021/06/27 09:23:03;;;;;;;32.17;20.35;;;23.00;98.80;;;;;;5046554;28;20195;-73
2021/06/27 09:25:31;;;;;;;31.55;20.88;;;23.00;98.70;;;;;;5044690;28;20313;-73
2021/06/27 09:28:05;;;;;;;29.50;21.00;;;23.00;98.60;;;;;;5049882;28;20213;-70
2021/06/27 09:30:35;;;;;;;32.70;21.27;;;23.00;98.40;;;;;;5045306;28;20195;-71
2021/06/27 09:33:04;;;;;;;31.90;22.05;;;23.00;98.20;;;;;;5055501;28;20230;-71
2021/06/27 09:35:45;;;;;;;32.13;20.85;;;23.00;98.00;;;;;;5053427;28;20659;-73
2021/06/27 09:38:23;;;;;;;29.45;20.02;;;23.10;97.90;;;;;;5053020;28;20226;-72
2021/06/27 09:40:51;;;;;;;31.85;21.52;;;23.10;97.90;;;;;;5049264;28;20234;-70
2021/06/27 09:43:19;;;;;;;35.63;21.42;;;23.10;97.80;;;;;;5052371;28;20565;-70
2021/06/27 09:45:47;;;;;;;30.65;20.38;;;23.10;97.70;;;;;;5050926;28;20259;-72
2021/06/27 09:48:14;;;;;;;32.85;21.70;;;23.20;97.60;;;;;;5051690;28;20211;-73
2021/06/27 09:50:43;;;;;;;33.28;20.83;;;23.20;97.60;;;;;;5051089;28;20211;-72
2021/06/27 09:53:35;;;;;;;32.88;21.67;;;23.20;97.50;;;;;;5052078;28;20215;-73
2021/06/27 09:56:04;;;;;;;28.52;20.52;;;23.30;97.50;;;;;;5052527;28;20671;-73
2021/06/27 09:58:31;;;;;;;32.97;21.08;;;23.40;97.50;;;;;;5052533;28;20242;-71
2021/06/27 10:00:58;;;;;;;32.55;20.67;;;23.40;97.70;;;;;;5047982;28;20195;-72
2021/06/27 10:03:25;;;;;;;33.55;22.65;;;23.50;97.20;;;;;;5051004;28;20666;-74
2021/06/27 10:06:04;;;;;;;29.13;20.40;;;23.50;97.20;;;;;;5053094;28;20724;-75
2021/06/27 10:08:31;;;;;;;29.67;19.67;;;23.60;97.20;;;;;;5052810;28;20277;-75
2021/06/27 10:11:09;;;;;;;31.02;20.73;;;23.60;97.00;;;;;;5049585;28;20249;-73
2021/06/27 10:13:36;;;;;;;30.25;19.85;;;23.70;96.80;;;;;;5049728;28;20230;-71
2021/06/27 10:16:03;;;;;;;29.95;20.50;;;23.70;96.70;;;;;;5049507;28;20214;-72
2021/06/27 10:18:30;;;;;;;30.67;19.90;;;23.80;96.70;;;;;;5051475;28;20663;-71
2021/06/27 10:20:59;;;;;;;28.75;19.92;;;23.80;96.60;;;;;;5045554;28;20291;-72
2021/06/27 10:23:26;;;;;;;28.98;19.83;;;23.90;96.60;;;;;;5049556;28;20253;-70
2021/06/27 10:25:54;;;;;;;29.35;20.23;;;23.90;96.50;;;;;;5051669;28;20202;-70
2021/06/27 10:28:21;;;;;;;30.10;19.80;;;24.00;96.30;;;;;;5050945;28;20520;-69
2021/06/27 10:30:50;;;;;;;26.65;17.98;;;24.10;96.20;;;;;;5051754;28;20740;-72
2021/06/27 10:33:18;;;;;;;28.27;19.80;;;24.10;96.10;;;;;;5052178;28;20273;-76
2021/06/27 10:35:50;;;;;;;28.83;18.17;;;24.20;96.00;;;;;;5050851;28;20210;-73
2021/06/27 10:38:22;;;;;;;26.25;17.10;;;24.20;95.90;;;;;;5051758;28;20261;-74
2021/06/27 10:40:51;;;;;;;27.23;18.85;;;24.30;95.80;;;;;;5048710;28;20257;-73
2021/06/27 10:43:18;;;;;;;29.42;17.15;;;24.40;95.80;;;;;;5050795;28;20210;-71
2021/06/27 10:45:59;;;;;;;25.13;17.20;;;24.50;95.80;;;;;;5050805;28;20203;-72
2021/06/27 10:48:40;;;;;;;27.23;17.90;;;24.60;95.50;;;;;;5050057;28;20210;-70
2021/06/27 10:51:12;;;;;;;22.30;17.30;;;24.70;94.90;;;;;;5046923;28;20428;-70
2021/06/27 10:54:15;;;;;;;24.15;16.70;;;25.20;93.40;;;;;;5050207;28;20273;-74
2021/06/27 10:56:53;;;;;;;23.00;16.55;;;25.10;93.80;;;;;;5043221;28;20203;-74
2021/06/27 10:59:57;;;;;;;22.83;16.65;;;25.10;93.90;;;;;;5049865;28;20312;-78
2021/06/27 11:02:41;;;;;;;23.23;15.90;;;25.10;93.80;;;;;;5050097;28;20578;-74
2021/06/27 11:05:46;;;;;;;25.30;16.77;;;25.20;93.90;;;;;;5050530;28;20285;-73
2021/06/27 11:08:33;;;;;;;23.13;14.95;;;25.20;93.50;;;;;;5048578;28;20191;-73
2021/06/27 11:11:08;;;;;;;22.33;16.17;;;25.30;93.40;;;;;;5050845;28;20211;-72
2021/06/27 11:13:37;;;;;;;21.20;14.10;;;25.40;93.30;;;;;;5049137;28;20218;-73
2021/06/27 11:16:09;;;;;;;22.73;15.27;;;25.40;93.20;;;;;;5049075;28;20191;-73
2021/06/27 11:18:38;;;;;;;20.75;14.52;;;25.50;92.90;;;;;;5049283;28;20685;-72
2021/06/27 11:21:17;;;;;;;22.85;15.68;;;25.60;92.70;;;;;;5049887;28;20210;-72
2021/06/27 11:23:52;;;;;;;22.65;15.13;;;25.70;92.50;;;;;;5046925;28;20222;-73
2021/06/27 11:26:50;;;;;;;22.33;16.15;;;25.80;92.30;;;;;;5052265;28;20210;-75
2021/06/27 11:29:46;;;;;;;17.83;12.80;;;25.90;92.20;;;;;;5046849;28;20195;-73
2021/06/27 11:32:47;;;;;;;18.35;13.95;;;25.90;92.10;;;;;;5047066;28;20286;-71
2021/06/27 11:35:44;;;;;;;19.05;13.27;;;26.00;91.90;;;;;;5044770;28;20221;-70
2021/06/27 11:38:42;;;;;;;20.42;14.05;;;26.10;91.90;;;;;;5042942;28;20218;-71
2021/06/27 11:41:11;;;;;;;21.52;14.38;;;26.10;91.50;;;;;;5047970;28;20226;-69
2021/06/27 11:44:00;;;;;;;19.00;13.98;;;26.20;91.20;;;;;;5050802;28;20199;-76
2021/06/27 11:46:30;;;;;;;18.58;13.35;;;26.30;90.90;;;;;;5049131;28;20226;-71
2021/06/27 11:48:57;;;;;;;19.77;14.48;;;26.40;90.80;;;;;;5051106;28;20218;-72
2021/06/27 11:51:35;;;;;;;22.88;14.75;;;26.50;90.50;;;;;;5049633;28;20213;-71
2021/06/27 11:54:03;;;;;;;20.73;12.30;;;26.50;90.20;;;;;;5049304;28;20221;-74
2021/06/27 11:56:52;;;;;;;16.70;11.80;;;26.60;90.20;;;;;;5041746;28;20211;-73
2021/06/27 11:59:22;;;;;;;18.80;12.23;;;26.70;90.10;;;;;;5042769;28;20548;-73
2021/06/27 12:02:07;;;;;;;17.00;11.98;;;26.80;90.00;;;;;;5048788;28;20281;-75
2021/06/27 12:04:41;;;;;;;15.73;11.88;;;26.90;89.80;;;;;;5047925;28;20651;-74
2021/06/27 12:07:33;;;;;;;15.18;11.20;;;27.00;89.00;;;;;;5047288;28;20257;-75
2021/06/27 12:10:04;;;;;;;14.10;11.15;;;27.10;88.60;;;;;;5048080;28;20210;-76
2021/06/27 12:12:39;;;;;;;14.75;11.65;;;27.20;87.90;;;;;;5051227;28;20207;-73
2021/06/27 12:15:24;;;;;;;15.10;11.68;;;27.30;87.10;;;;;;5050341;28;20197;-71
2021/06/27 12:17:54;;;;;;;13.98;9.90;;;27.40;86.70;;;;;;5050104;28;20685;-71
2021/06/27 12:20:23;;;;;;;19.92;10.80;;;27.50;86.40;;;;;;5046111;28;20218;-72
2021/06/27 12:22:50;;;;;;;15.13;11.13;;;27.60;85.70;;;;;;5048375;28;20682;-74
2021/06/27 12:25:23;;;;;;;15.52;11.70;;;27.70;85.20;;;;;;5048891;28;20207;-71
2021/06/27 12:27:51;;;;;;;13.48;9.68;;;27.90;84.40;;;;;;5048093;28;20205;-73
2021/06/27 12:30:20;;;;;;;12.68;10.40;;;28.00;84.20;;;;;;5045560;28;20565;-72
2021/06/27 12:33:00;;;;;;;15.50;10.90;;;28.10;83.30;;;;;;5046462;28;20421;-73
2021/06/27 12:35:27;;;;;;;12.98;10.10;;;28.60;78.70;;;;;;5047090;28;20435;-74
2021/06/27 12:37:54;;;;;;;11.57;9.00;;;29.00;77.60;;;;;;5046242;28;20900;-70
2021/06/27 12:40:21;;;;;;;10.77;8.60;;;29.00;78.80;;;;;;5042675;28;20210;-71